createdAt,value
2018-07-06T00:00:51.264Z,3.17
2018-07-06T00:06:05.239Z,2.77
2018-07-06T00:11:19.325Z,2.17
2018-07-06T00:16:34.448Z,2.00
2018-07-06T00:21:48.700Z,2.37
2018-07-06T00:27:01.841Z,1.60
2018-07-06T00:32:15.176Z,2.40
2018-07-06T00:37:30.217Z,3.93
2018-07-06T00:42:43.628Z,2.37
2018-07-06T00:47:57.993Z,2.73
2018-07-06T00:53:12.361Z,2.17
2018-07-06T00:58:28.064Z,2.03
2018-07-06T01:03:42.494Z,2.20
2018-07-06T01:08:55.824Z,2.00
2018-07-06T01:14:09.040Z,3.03
2018-07-06T01:19:23.130Z,2.43
2018-07-06T01:24:37.197Z,2.83
2018-07-06T01:29:51.196Z,2.60
2018-07-06T01:35:05.450Z,2.90
2018-07-06T01:40:19.603Z,4.40
2018-07-06T01:45:27.820Z,3.10
2018-07-06T01:50:41.869Z,2.90
2018-07-06T01:55:56.061Z,4.87
2018-07-06T02:01:04.335Z,8.13
2018-07-06T02:06:18.430Z,4.17
2018-07-06T02:11:31.901Z,2.30
2018-07-06T02:16:45.194Z,5.57
2018-07-06T02:21:59.413Z,4.20
2018-07-06T02:27:13.434Z,4.33
2018-07-06T02:32:26.747Z,4.23
2018-07-06T02:37:40.836Z,3.53
2018-07-06T02:42:55.006Z,5.13
2018-07-06T02:48:09.152Z,4.47
2018-07-06T02:53:23.216Z,4.73
2018-07-06T02:58:37.319Z,2.80
2018-07-06T03:03:51.433Z,3.93
2018-07-06T03:08:59.628Z,4.80
2018-07-06T03:14:12.788Z,3.37
2018-07-06T03:19:19.836Z,6.17
2018-07-06T03:24:34.013Z,4.73
2018-07-06T03:29:48.094Z,2.93
2018-07-06T03:35:02.105Z,5.90
2018-07-06T03:40:15.305Z,4.57
2018-07-06T03:45:28.505Z,3.67
2018-07-06T03:50:42.685Z,3.93
2018-07-06T03:55:55.993Z,4.40
2018-07-06T04:01:04.287Z,3.70
2018-07-06T04:06:18.336Z,4.80
2018-07-06T04:11:32.370Z,4.60
2018-07-06T04:16:46.488Z,3.03
2018-07-06T04:22:00.573Z,3.13
2018-07-06T04:27:14.413Z,4.23
2018-07-06T04:32:28.509Z,4.67
2018-07-06T04:37:41.948Z,5.47
2018-07-06T04:42:56.600Z,5.43
2018-07-06T04:48:10.765Z,5.70
2018-07-06T04:53:24.868Z,5.30
2018-07-06T04:58:38.164Z,5.50
2018-07-06T05:03:52.228Z,4.50
2018-07-06T05:09:07.047Z,3.97
2018-07-06T05:14:20.349Z,3.87
2018-07-06T05:19:33.573Z,5.70
2018-07-06T05:24:46.829Z,7.23
2018-07-06T05:30:00.081Z,3.87
2018-07-06T05:35:14.510Z,3.07
2018-07-06T05:40:27.792Z,5.27
2018-07-06T05:45:43.314Z,4.47
2018-07-06T05:50:57.509Z,6.27
2018-07-06T05:56:11.864Z,5.17
2018-07-06T06:01:24.268Z,4.83
2018-07-06T06:06:38.368Z,3.97
2018-07-06T06:11:39.596Z,3.33
2018-07-06T06:16:38.964Z,8.37
2018-07-06T06:21:39.105Z,3.43
2018-07-06T06:26:40.158Z,7.40
2018-07-06T06:31:39.521Z,7.13
2018-07-06T06:36:38.654Z,6.50
2018-07-06T06:41:39.361Z,4.87
2018-07-06T06:46:39.858Z,4.53
2018-07-06T06:51:43.573Z,5.47
2018-07-06T06:56:43.343Z,4.83
2018-07-06T07:01:43.855Z,6.63
2018-07-06T07:06:46.037Z,6.23
2018-07-06T07:11:47.479Z,6.07
2018-07-06T07:16:48.823Z,7.87
2018-07-06T07:21:47.869Z,6.77
2018-07-06T07:26:48.785Z,4.33
2018-07-06T07:31:49.297Z,7.20
2018-07-06T07:36:49.244Z,6.10
2018-07-06T07:41:48.790Z,5.80
2018-07-06T07:46:49.114Z,3.80
2018-07-06T07:52:05.698Z,4.53
2018-07-06T07:57:04.972Z,4.13
2018-07-06T08:02:06.866Z,2.63
2018-07-06T08:07:06.330Z,4.60
2018-07-06T08:12:08.050Z,3.00
2018-07-06T08:17:08.940Z,2.80
2018-07-06T08:22:07.331Z,5.07
2018-07-06T08:27:06.428Z,1.90
2018-07-06T08:32:16.018Z,1.93
2018-07-06T08:37:31.920Z,1.90
2018-07-06T08:45:59.097Z,1.60
2018-07-06T08:50:53.680Z,3.10
2018-07-06T08:55:48.449Z,2.03
2018-07-06T09:00:43.312Z,3.10
2018-07-06T09:05:38.837Z,4.73
2018-07-06T09:10:33.652Z,4.60
2018-07-06T09:15:28.373Z,3.03
2018-07-06T09:20:23.121Z,2.07
2018-07-06T09:25:17.925Z,2.03
2018-07-06T09:30:15.086Z,4.03
2018-07-06T09:35:11.027Z,2.03
2018-07-06T09:40:10.242Z,3.07
2018-07-06T09:45:04.967Z,2.13
2018-07-06T09:49:59.540Z,4.17
2018-07-06T09:54:54.016Z,2.73
2018-07-06T09:59:57.344Z,2.50
2018-07-06T10:04:51.898Z,3.37
2018-07-06T10:09:46.929Z,3.77
2018-07-06T10:14:41.396Z,2.23
2018-07-06T10:19:35.983Z,2.70
2018-07-06T10:24:30.520Z,2.95
2018-07-06T10:29:39.229Z,3.60
2018-07-06T10:34:33.855Z,4.20
2018-07-06T10:39:40.165Z,3.53
2018-07-06T10:44:35.348Z,5.42
2018-07-06T10:49:30.136Z,2.30
2018-07-06T10:54:25.019Z,3.90
2018-07-06T10:59:19.627Z,4.37
2018-07-06T11:04:14.205Z,2.62
2018-07-06T11:09:08.943Z,3.93
2018-07-06T11:14:03.913Z,3.20
2018-07-06T11:18:58.878Z,2.70
2018-07-06T11:23:58.397Z,2.70
2018-07-06T11:28:53.905Z,3.53
2018-07-06T11:33:48.739Z,3.20
2018-07-06T11:38:43.276Z,3.43
2018-07-06T11:43:38.061Z,3.20
2018-07-06T11:48:33.393Z,3.00
2018-07-06T11:53:38.110Z,2.17
2018-07-06T11:58:33.049Z,4.57
2018-07-06T12:03:27.421Z,2.57
2018-07-06T12:08:24.567Z,4.70
2018-07-06T12:13:21.170Z,2.23
2018-07-06T12:18:16.000Z,2.40
2018-07-06T12:23:14.690Z,2.70
2018-07-06T12:28:09.225Z,2.13
2018-07-06T12:33:03.853Z,2.60
2018-07-06T12:37:58.392Z,4.50
2018-07-06T12:42:53.667Z,3.30
2018-07-06T12:47:48.337Z,3.00
2018-07-06T12:52:43.031Z,7.22
2018-07-06T12:57:37.746Z,31.48
2018-07-06T13:02:32.284Z,4.37
2018-07-06T13:07:26.864Z,5.17
2018-07-06T13:12:21.479Z,4.62
2018-07-06T13:17:16.563Z,24.97
2018-07-06T13:22:11.253Z,7.80
2018-07-06T13:27:06.519Z,4.63
2018-07-06T13:32:02.975Z,4.33
2018-07-06T13:36:57.982Z,5.08
2018-07-06T13:41:52.794Z,4.15
2018-07-06T13:46:53.228Z,4.10
2018-07-06T13:51:48.117Z,4.35
2018-07-06T13:56:48.557Z,4.85
2018-07-06T14:01:43.934Z,5.37
2018-07-06T14:06:40.417Z,4.03
2018-07-06T14:11:35.957Z,5.08
2018-07-06T14:16:30.419Z,4.95
2018-07-06T14:21:25.721Z,4.55
2018-07-06T14:26:22.761Z,5.03
2018-07-06T14:31:19.369Z,4.78
2018-07-06T14:36:14.288Z,4.75
2018-07-06T14:41:09.689Z,4.50
2018-07-06T14:46:04.298Z,5.05
2018-07-06T14:50:58.677Z,45.17
2018-07-06T14:55:53.507Z,8.83
2018-07-06T15:00:48.420Z,6.25
2018-07-06T15:05:43.319Z,7.33
2018-07-06T15:10:40.082Z,6.00
2018-07-06T15:15:34.268Z,5.10
2018-07-06T15:20:29.186Z,5.78
2018-07-06T15:25:24.038Z,4.80
2018-07-06T15:30:19.048Z,5.22
2018-07-06T15:35:13.740Z,6.37
2018-07-06T15:40:08.742Z,5.30
2018-07-06T15:45:03.395Z,5.25
2018-07-06T15:49:58.193Z,5.15
2018-07-06T15:54:53.252Z,5.03
2018-07-06T15:59:47.902Z,5.17
2018-07-06T16:04:42.755Z,5.65
2018-07-06T16:09:37.933Z,5.75
2018-07-06T16:14:32.584Z,5.33
2018-07-06T16:19:27.238Z,6.08
2018-07-06T16:24:21.782Z,5.83
2018-07-06T16:29:16.512Z,6.73
2018-07-06T16:34:11.128Z,6.73
2018-07-06T16:39:06.390Z,7.00
2018-07-06T16:44:01.127Z,7.03
2018-07-06T16:48:55.661Z,7.87
2018-07-06T16:53:50.318Z,7.60
2018-07-06T16:58:45.400Z,6.77
2018-07-06T17:03:40.196Z,8.40
2018-07-06T17:08:34.658Z,10.03
2018-07-06T17:13:29.225Z,10.43
2018-07-06T17:18:23.797Z,5.10
2018-07-06T17:23:18.408Z,6.13
2018-07-06T17:28:12.973Z,9.97
2018-07-06T17:33:07.554Z,7.90
2018-07-06T17:38:02.145Z,7.80
2018-07-06T17:42:56.660Z,7.43
2018-07-06T17:47:51.654Z,7.20
2018-07-06T17:52:46.165Z,7.27
2018-07-06T17:57:40.702Z,6.20
2018-07-06T18:02:35.317Z,6.87
2018-07-06T18:07:29.894Z,7.47
2018-07-06T18:12:24.665Z,5.70
2018-07-06T18:17:19.280Z,7.33
2018-07-06T18:22:13.853Z,4.90
2018-07-06T18:27:08.525Z,6.37
2018-07-06T18:32:03.371Z,4.90
2018-07-06T18:36:57.961Z,6.80
2018-07-06T18:41:52.655Z,7.20
2018-07-06T18:46:47.241Z,5.40
2018-07-06T18:51:41.966Z,6.10
2018-07-06T18:56:36.587Z,5.73
2018-07-06T19:01:31.165Z,6.40
2018-07-06T19:06:25.399Z,7.17
2018-07-06T19:11:20.085Z,7.30
2018-07-06T19:16:14.758Z,6.77
2018-07-06T19:21:09.729Z,8.53
2018-07-06T19:26:04.584Z,7.73
2018-07-06T19:31:00.038Z,6.80
2018-07-06T19:35:54.599Z,7.80
2018-07-06T19:40:49.325Z,7.60
2018-07-06T19:45:43.812Z,8.43
2018-07-06T19:50:38.389Z,9.03
2018-07-06T19:55:33.274Z,8.83
2018-07-06T20:00:27.847Z,9.90
2018-07-06T20:05:22.883Z,10.67
2018-07-06T20:10:17.613Z,13.07
2018-07-06T20:15:12.153Z,14.83
2018-07-06T20:20:08.872Z,13.07
2018-07-06T20:25:03.454Z,12.07
2018-07-06T20:29:57.888Z,15.03
2018-07-06T20:34:52.576Z,12.20
2018-07-06T20:39:47.258Z,11.53
2018-07-06T20:44:41.748Z,10.53
2018-07-06T20:49:36.398Z,9.20
2018-07-06T20:54:30.937Z,12.77
2018-07-06T20:59:25.533Z,15.50
2018-07-06T21:04:20.277Z,17.03
2018-07-06T21:09:14.864Z,14.67
2018-07-06T21:14:09.437Z,16.20
2018-07-06T21:19:04.000Z,13.40
2018-07-06T21:23:58.567Z,13.20
2018-07-06T21:28:53.233Z,15.13
2018-07-06T21:33:47.798Z,14.00
2018-07-06T21:38:42.636Z,13.60
2018-07-06T21:43:37.214Z,13.57
2018-07-06T21:48:31.761Z,14.77
2018-07-06T21:53:26.351Z,13.77
2018-07-06T21:58:20.926Z,11.87
2018-07-06T22:03:15.461Z,12.37
2018-07-06T22:08:10.029Z,11.53
2018-07-06T22:13:05.244Z,13.33
2018-07-06T22:17:59.932Z,17.53
2018-07-06T22:22:54.497Z,13.67
2018-07-06T22:27:49.229Z,18.23
2018-07-06T22:32:43.740Z,17.23
2018-07-06T22:37:38.249Z,17.10
2018-07-06T22:42:32.757Z,15.17
2018-07-06T22:47:27.424Z,16.97
2018-07-06T22:52:21.958Z,19.83
2018-07-06T22:57:16.580Z,17.63
2018-07-06T23:02:11.119Z,18.13
2018-07-06T23:07:05.956Z,16.50
2018-07-06T23:12:00.449Z,16.73
2018-07-06T23:16:55.068Z,18.23
2018-07-06T23:21:49.582Z,19.90
2018-07-06T23:26:44.247Z,17.27
2018-07-06T23:31:38.753Z,18.00
2018-07-06T23:36:33.271Z,19.57
2018-07-06T23:41:27.788Z,18.83
2018-07-06T23:46:22.274Z,19.47
2018-07-06T23:51:16.813Z,20.67
2018-07-06T23:56:11.313Z,20.67
